Time;durP1;ratioP1;P1;durP2;ratioP2;P2;SDS_P1;SDS_P2;PMS_P1;PMS_P2;Temp;Humidity;BMP_temperature;BMP_pressure;BME280_temperature;BME280_humidity;BME280_pressure;Samples;Min_cycle;Max_cycle;Signal;HPM_P1;HPM_P2
2023/10/15 00:02:33;;;;;;;2.20;1.10;;;;;;;12.76;97.33;97585.63;6251867;28;20675;-53
2023/10/15 00:05:36;;;;;;;7.30;5.37;;;;;;;12.77;94.58;97587.28;6252669;28;20641;-53
2023/10/15 00:08:39;;;;;;;3.17;1.10;;;;;;;12.79;88.00;97604.66;6252063;28;20372;-52
2023/10/15 00:11:43;;;;;;;3.67;1.20;;;;;;;12.68;87.88;97594.16;6250897;28;20227;-50
2023/10/15 00:14:45;;;;;;;2.97;1.33;;;;;;;12.56;87.91;97579.13;6234256;28;20239;-51
2023/10/15 00:17:51;;;;;;;4.17;1.30;;;;;;;12.54;87.82;97567.88;6256478;28;20234;-52
2023/10/15 00:20:55;;;;;;;1.83;1.33;;;;;;;12.41;86.25;97589.66;6236153;28;20231;-52
2023/10/15 00:23:59;;;;;;;2.13;0.90;;;;;;;12.51;84.92;97604.97;6254850;28;20237;-49
2023/10/15 00:27:01;;;;;;;2.27;1.33;;;;;;;12.38;85.91;97606.22;6249212;28;20322;-51
2023/10/15 00:30:12;;;;;;;2.87;1.47;;;;;;;12.34;85.90;97615.81;6217928;28;20266;-49
2023/10/15 00:33:16;;;;;;;2.53;1.20;;;;;;;12.31;86.38;97613.63;6214570;28;20215;-51
2023/10/15 00:36:18;;;;;;;2.00;1.13;;;;;;;12.42;85.87;97611.88;6222187;28;20733;-52
2023/10/15 00:39:21;;;;;;;2.23;1.50;;;;;;;12.31;86.79;97635.81;6230424;28;20218;-51
2023/10/15 00:42:23;;;;;;;3.07;1.17;;;;;;;12.25;85.22;97612.00;6253328;28;20212;-50
2023/10/15 00:45:25;;;;;;;2.87;1.30;;;;;;;12.25;86.19;97630.69;6252313;28;20235;-53
2023/10/15 00:48:33;;;;;;;4.77;1.40;;;;;;;12.29;84.49;97621.09;6258073;28;20234;-54
2023/10/15 00:51:44;;;;;;;4.33;1.40;;;;;;;12.36;83.78;97621.69;6248900;28;20369;-49
2023/10/15 00:54:46;;;;;;;2.87;1.47;;;;;;;12.43;84.30;97611.63;6248151;28;20242;-51
2023/10/15 00:57:55;;;;;;;2.83;1.60;;;;;;;12.29;87.96;97621.09;6253023;28;20237;-52
2023/10/15 01:01:19;;;;;;;2.37;2.07;;;;;;;12.35;89.15;97615.53;6246964;28;20719;-52
2023/10/15 01:04:25;;;;;;;2.37;1.60;;;;;;;12.31;91.68;97619.78;6254420;28;20234;-53
2023/10/15 01:07:46;;;;;;;5.50;2.30;;;;;;;12.36;90.40;97625.19;6256819;28;20231;-52
2023/10/15 01:10:53;;;;;;;2.63;2.20;;;;;;;12.31;91.31;97635.00;6254199;28;20240;-51
2023/10/15 01:13:56;;;;;;;3.27;2.07;;;;;;;12.33;91.98;97635.56;6271900;28;20236;-53
2023/10/15 01:17:02;;;;;;;5.13;2.13;;;;;;;12.48;90.13;97635.69;6250748;28;20234;-52
2023/10/15 01:20:08;;;;;;;2.03;1.80;;;;;;;12.30;91.92;97636.06;6245692;28;20231;-50
2023/10/15 01:23:31;;;;;;;3.20;2.20;;;;;;;12.31;92.02;97637.66;6253100;28;20227;-53
2023/10/15 01:26:39;;;;;;;4.00;2.60;;;;;;;12.23;93.48;97632.81;6243369;28;20224;-53
2023/10/15 01:29:43;;;;;;;5.83;2.57;;;;;;;12.24;94.48;97626.41;6260178;28;20239;-52
2023/10/15 01:32:46;;;;;;;3.00;2.43;;;;;;;12.22;95.27;97625.88;6252856;28;20788;-52
2023/10/15 01:35:48;;;;;;;3.90;2.57;;;;;;;12.32;94.12;97637.44;6250817;28;20231;-50
2023/10/15 01:38:55;;;;;;;6.77;3.37;;;;;;;12.31;93.04;97627.78;6251519;28;20231;-52
2023/10/15 01:42:04;;;;;;;5.17;2.80;;;;;;;12.20;95.18;97642.13;6233139;28;20297;-52
2023/10/15 01:45:17;;;;;;;4.43;2.80;;;;;;;12.23;94.22;97632.81;6231962;28;20230;-51
2023/10/15 01:48:30;;;;;;;5.70;3.00;;;;;;;12.13;94.73;97642.34;6244457;28;20711;-49
2023/10/15 01:51:39;;;;;;;3.90;2.47;;;;;;;12.07;95.34;97631.88;6252201;28;20227;-49
2023/10/15 01:54:45;;;;;;;3.23;2.27;;;;;;;12.04;95.60;97629.69;6250275;28;20238;-49
2023/10/15 01:57:47;;;;;;;3.83;2.50;;;;;;;12.07;94.46;97629.19;6250586;28;20292;-54
2023/10/15 02:00:50;;;;;;;6.50;2.93;;;;;;;11.95;94.82;97621.31;6258621;28;20226;-51
2023/10/15 02:03:53;;;;;;;5.37;2.80;;;;;;;12.11;93.41;97635.63;6247769;28;20804;-51
2023/10/15 02:06:56;;;;;;;5.77;2.60;;;;;;;12.04;93.65;97638.50;6246106;28;20239;-50
2023/10/15 02:10:00;;;;;;;6.60;3.23;;;;;;;12.03;93.81;97642.25;6254710;28;20276;-51
2023/10/15 02:13:05;;;;;;;6.40;3.10;;;;;;;11.98;94.98;97646.72;6252566;28;20913;-50
2023/10/15 02:16:15;;;;;;;3.53;2.53;;;;;;;12.00;93.84;97641.94;6256068;28;20220;-51
2023/10/15 02:19:40;;;;;;;5.83;2.80;;;;;;;11.93;95.54;97644.00;6240262;28;20771;-50
2023/10/15 02:22:43;;;;;;;4.87;2.63;;;;;;;12.00;93.47;97639.25;6249585;28;20326;-53
2023/10/15 02:25:47;;;;;;;4.57;2.90;;;;;;;12.16;90.68;97640.22;6250146;28;20234;-50
2023/10/15 02:28:53;;;;;;;3.20;2.90;;;;;;;11.90;91.81;97637.28;6251252;28;20284;-53
2023/10/15 02:31:58;;;;;;;8.93;3.13;;;;;;;11.87;92.74;97654.63;6251830;28;20313;-51
2023/10/15 02:35:12;;;;;;;6.43;3.43;;;;;;;11.81;93.27;97644.91;6254896;28;20236;-52
2023/10/15 02:38:16;;;;;;;4.87;2.80;;;;;;;11.80;93.08;97642.50;6247974;28;20730;-52
2023/10/15 02:41:31;;;;;;;3.60;2.63;;;;;;;11.78;91.00;97629.41;6245702;28;20361;-52
2023/10/15 02:44:33;;;;;;;5.37;2.40;;;;;;;11.75;92.54;97624.56;6256036;28;20314;-51
2023/10/15 02:47:41;;;;;;;3.70;2.37;;;;;;;11.75;93.24;97621.88;6254697;28;20722;-51
2023/10/15 02:50:57;;;;;;;4.57;2.30;;;;;;;11.68;92.04;97621.28;6247108;28;20823;-50
2023/10/15 02:54:18;;;;;;;4.70;2.20;;;;;;;11.76;89.13;97626.16;6246742;28;20227;-52
2023/10/15 02:57:21;;;;;;;3.43;2.30;;;;;;;11.70;90.06;97626.38;6235402;28;20239;-50
2023/10/15 03:00:33;;;;;;;5.10;2.10;;;;;;;11.74;87.54;97643.50;6254840;28;20382;-48
2023/10/15 03:03:37;;;;;;;4.33;2.30;;;;;;;11.82;86.31;97640.41;6244261;28;20743;-50
2023/10/15 03:06:42;;;;;;;10.90;2.20;;;;;;;11.96;83.42;97643.47;6243738;28;20330;-53
2023/10/15 03:09:48;;;;;;;3.90;1.90;;;;;;;11.73;84.91;97668.56;6251245;28;20230;-51
2023/10/15 03:12:52;;;;;;;5.57;2.23;;;;;;;11.66;85.93;97667.94;6247472;28;20242;-51
2023/10/15 03:15:57;;;;;;;4.60;2.13;;;;;;;11.68;85.05;97673.84;6249447;28;20223;-53
2023/10/15 03:19:17;;;;;;;3.00;1.83;;;;;;;11.71;83.58;97673.34;6253542;28;20242;-49
2023/10/15 03:22:23;;;;;;;3.07;1.67;;;;;;;11.63;83.17;97682.59;6246870;28;20243;-51
2023/10/15 03:25:33;;;;;;;6.97;2.47;;;;;;;11.57;83.25;97679.03;6266542;28;20251;-50
2023/10/15 03:28:44;;;;;;;4.07;2.00;;;;;;;11.53;84.77;97672.59;6249789;28;20235;-50
2023/10/15 03:32:02;;;;;;;7.33;2.50;;;;;;;11.41;85.00;97657.75;6250051;28;20318;-49
2023/10/15 03:35:08;;;;;;;3.30;1.67;;;;;;;11.36;85.38;97663.84;6245358;28;20238;-50
2023/10/15 03:38:14;;;;;;;4.17;1.97;;;;;;;11.27;86.04;97670.66;6252549;28;20421;-51
2023/10/15 03:41:27;;;;;;;4.53;2.27;;;;;;;11.22;85.23;97665.25;6244576;28;20734;-50
2023/10/15 03:44:32;;;;;;;2.13;1.87;;;;;;;11.20;86.25;97664.69;6249633;28;20232;-54
2023/10/15 03:47:46;;;;;;;2.70;1.33;;;;;;;11.15;83.60;97660.09;6253713;28;20313;-52
2023/10/15 03:50:55;;;;;;;4.53;1.67;;;;;;;11.02;82.10;97642.56;6245548;28;20241;-49
2023/10/15 03:54:06;;;;;;;4.70;1.87;;;;;;;11.02;83.06;97652.44;6252702;28;20314;-52
2023/10/15 03:57:09;;;;;;;4.87;1.53;;;;;;;11.01;81.35;97653.50;6250705;28;20238;-50
2023/10/15 04:03:35;;;;;;;3.33;1.77;;;;;;;10.86;80.90;97654.09;6258050;28;20241;-53
2023/10/15 04:06:38;;;;;;;6.20;1.90;;;;;;;10.95;79.72;97662.47;6251983;28;20239;-51
2023/10/15 04:09:41;;;;;;;3.07;1.43;;;;;;;10.76;79.79;97659.25;6256771;28;20245;-50
2023/10/15 04:12:44;;;;;;;1.90;1.30;;;;;;;10.72;80.91;97658.94;6263044;28;20599;-51
2023/10/15 04:15:49;;;;;;;2.53;1.53;;;;;;;10.65;79.99;97660.97;6247354;28;20237;-52
2023/10/15 04:18:53;;;;;;;3.57;1.67;;;;;;;10.51;80.65;97644.50;6255521;28;20360;-51
2023/10/15 04:22:00;;;;;;;4.93;1.33;;;;;;;10.53;81.06;97652.22;6257766;28;20273;-52
2023/10/15 04:25:06;;;;;;;5.93;1.57;;;;;;;10.49;80.28;97643.94;6253053;28;20237;-51
2023/10/15 04:28:19;;;;;;;4.27;1.60;;;;;;;10.39;79.97;97649.06;6250654;28;20251;-52
2023/10/15 04:31:22;;;;;;;2.77;1.50;;;;;;;10.19;79.72;97622.06;6259870;28;20312;-51
2023/10/15 04:34:26;;;;;;;1.73;1.30;;;;;;;10.22;80.08;97638.38;6253576;28;20242;-50
2023/10/15 04:37:31;;;;;;;2.83;1.60;;;;;;;10.20;80.07;97637.03;6249457;28;20252;-51
2023/10/15 04:43:56;;;;;;;3.13;1.40;;;;;;;9.97;81.15;97640.59;6255856;28;20250;-52
2023/10/15 04:47:09;;;;;;;3.70;1.43;;;;;;;9.87;81.61;97638.56;6251598;28;20241;-51
2023/10/15 04:50:17;;;;;;;4.53;1.70;;;;;;;9.87;82.06;97661.69;6251411;28;20312;-52
2023/10/15 04:56:23;;;;;;;3.83;1.23;;;;;;;9.73;84.23;97677.13;6252787;28;20737;-51
2023/10/15 04:59:25;;;;;;;2.63;1.20;;;;;;;9.64;81.86;97684.66;6251560;28;20258;-51
2023/10/15 05:02:27;;;;;;;3.07;1.40;;;;;;;9.62;83.21;97689.41;6252357;28;20720;-49
2023/10/15 05:05:31;;;;;;;5.97;1.40;;;;;;;9.61;84.08;97687.00;6243610;28;20234;-49
2023/10/15 05:08:35;;;;;;;3.70;1.40;;;;;;;9.42;85.17;97686.34;6253685;28;20223;-52
2023/10/15 05:11:37;;;;;;;2.43;1.30;;;;;;;9.38;85.31;97693.97;6254024;28;20234;-50
2023/10/15 05:14:39;;;;;;;2.90;1.40;;;;;;;9.27;84.75;97697.47;6253919;28;20233;-53
2023/10/15 05:17:43;;;;;;;4.73;1.20;;;;;;;9.23;84.78;97693.66;6251236;28;20322;-51
2023/10/15 05:20:50;;;;;;;3.73;1.30;;;;;;;9.18;87.33;97694.34;6253582;28;20709;-51
2023/10/15 05:23:53;;;;;;;5.27;1.40;;;;;;;9.13;87.01;97706.72;6252715;28;20242;-52
2023/10/15 05:26:56;;;;;;;2.37;1.30;;;;;;;9.07;85.76;97708.44;6253939;28;20227;-51
2023/10/15 05:29:59;;;;;;;5.97;1.80;;;;;;;9.10;81.00;97709.81;6248340;28;20245;-52
2023/10/15 05:33:01;;;;;;;3.67;1.37;;;;;;;8.84;78.51;97655.31;6253101;28;20710;-50
2023/10/15 05:36:04;;;;;;;4.93;1.30;;;;;;;9.23;77.66;97712.25;6251738;28;20243;-52
2023/10/15 05:39:09;;;;;;;4.40;1.47;;;;;;;9.35;76.63;97721.00;6254663;28;20245;-52
2023/10/15 05:42:11;;;;;;;4.70;1.50;;;;;;;9.26;77.74;97704.63;6252837;28;20686;-51
2023/10/15 05:45:14;;;;;;;5.57;1.53;;;;;;;9.33;76.60;97725.75;6252156;28;20589;-51
2023/10/15 05:48:17;;;;;;;4.57;1.33;;;;;;;9.37;77.55;97732.25;6252595;28;20221;-54
2023/10/15 05:51:22;;;;;;;4.83;1.60;;;;;;;9.47;76.34;97731.66;6250022;28;20304;-51
2023/10/15 05:54:24;;;;;;;6.57;1.40;;;;;;;9.50;76.62;97720.53;6252178;28;20316;-53
2023/10/15 05:57:28;;;;;;;5.07;2.00;;;;;;;9.72;76.99;97736.69;6247100;28;20237;-50
2023/10/15 06:00:35;;;;;;;2.47;1.67;;;;;;;10.00;75.96;97741.22;6247365;28;20316;-53
2023/10/15 06:03:40;;;;;;;4.43;1.63;;;;;;;10.08;75.88;97744.34;6252044;28;20232;-52
2023/10/15 06:06:43;;;;;;;4.83;1.73;;;;;;;9.98;75.92;97738.81;6252469;28;20225;-50
2023/10/15 06:09:45;;;;;;;4.27;1.87;;;;;;;10.23;75.89;97751.81;6252298;28;20232;-54
2023/10/15 06:12:47;;;;;;;7.10;1.73;;;;;;;10.16;76.23;97743.16;6248416;28;20618;-52
2023/10/15 06:15:52;;;;;;;7.33;1.83;;;;;;;10.30;76.24;97751.72;6248966;28;20240;-55
2023/10/15 06:18:54;;;;;;;4.30;1.80;;;;;;;10.28;76.46;97735.97;6254386;28;20736;-52
2023/10/15 06:21:56;;;;;;;4.57;1.50;;;;;;;10.12;77.12;97735.88;6250366;28;20239;-53
2023/10/15 06:24:59;;;;;;;4.30;1.77;;;;;;;10.37;76.21;97754.22;6247816;28;20223;-54
2023/10/15 06:28:02;;;;;;;6.43;2.37;;;;;;;10.24;77.09;97748.13;6251290;28;20237;-53
2023/10/15 06:31:04;;;;;;;5.90;1.60;;;;;;;10.21;75.63;97761.09;6246489;28;20222;-53
2023/10/15 06:34:07;;;;;;;4.47;1.80;;;;;;;10.23;76.04;97759.00;6250148;28;20634;-52
2023/10/15 06:37:09;;;;;;;4.97;1.70;;;;;;;10.22;74.69;97762.69;6246291;28;20736;-54
2023/10/15 06:40:13;;;;;;;3.73;1.70;;;;;;;10.17;76.61;97759.94;6245587;28;20241;-51
2023/10/15 06:43:24;;;;;;;6.57;1.63;;;;;;;10.25;75.78;97764.94;6251245;28;20744;-52
2023/10/15 06:46:26;;;;;;;4.23;1.53;;;;;;;10.21;77.08;97756.56;6246513;28;20245;-52
2023/10/15 06:49:28;;;;;;;5.17;2.10;;;;;;;10.24;77.20;97768.63;6250823;28;20333;-52
2023/10/15 06:52:30;;;;;;;5.50;2.20;;;;;;;10.21;78.03;97775.22;6254037;28;20331;-54
2023/10/15 06:55:33;;;;;;;5.47;1.90;;;;;;;10.16;78.40;97776.97;6251713;28;20225;-52
2023/10/15 06:58:36;;;;;;;3.63;2.13;;;;;;;10.22;80.40;97771.50;6240164;28;20226;-52
2023/10/15 07:01:38;;;;;;;5.43;2.00;;;;;;;10.27;81.53;97771.63;6250037;28;20590;-51
2023/10/15 07:04:41;;;;;;;4.90;2.13;;;;;;;10.22;81.07;97760.84;6251965;28;20355;-52
2023/10/15 07:07:45;;;;;;;5.63;2.07;;;;;;;10.19;81.89;97760.50;6250914;28;20712;-49
2023/10/15 07:10:49;;;;;;;5.13;1.97;;;;;;;10.08;82.62;97741.69;6249000;28;20301;-50
2023/10/15 07:13:51;;;;;;;6.03;2.20;;;;;;;10.16;83.34;97753.00;6248086;28;20319;-49
2023/10/15 07:16:53;;;;;;;4.10;2.40;;;;;;;10.12;83.61;97754.53;6250122;28;20234;-50
2023/10/15 07:19:56;;;;;;;6.73;2.57;;;;;;;10.24;82.89;97761.44;6255117;28;20231;-50
2023/10/15 07:23:00;;;;;;;5.40;2.73;;;;;;;10.42;83.58;97755.13;6247331;28;20771;-51
2023/10/15 07:26:03;;;;;;;7.87;2.73;;;;;;;10.55;82.96;97756.69;6248062;28;20230;-50
2023/10/15 07:29:05;;;;;;;6.10;2.60;;;;;;;10.62;83.45;97752.00;6251753;28;20849;-52
2023/10/15 07:32:07;;;;;;;6.97;2.53;;;;;;;10.76;82.75;97766.66;6245305;28;20237;-56
2023/10/15 07:35:14;;;;;;;5.63;3.20;;;;;;;10.79;82.61;97758.19;6258558;28;20225;-50
2023/10/15 07:38:16;;;;;;;4.47;2.63;;;;;;;10.97;80.79;97772.31;6248269;28;20226;-52
2023/10/15 07:41:19;;;;;;;5.60;2.90;;;;;;;10.88;81.50;97761.22;6251738;28;20273;-50
2023/10/15 07:44:21;;;;;;;6.20;3.43;;;;;;;10.93;81.84;97774.66;6250218;28;20269;-48
2023/10/15 07:47:24;;;;;;;8.30;3.70;;;;;;;11.20;77.87;97766.03;6250548;28;20602;-51
2023/10/15 07:50:29;;;;;;;9.00;3.33;;;;;;;11.26;77.35;97765.03;6256898;28;20230;-51
2023/10/15 07:53:31;;;;;;;5.77;2.70;;;;;;;11.17;78.23;97766.50;6252807;28;20249;-47
2023/10/15 07:56:34;;;;;;;5.43;2.80;;;;;;;11.17;75.90;97761.97;6248259;28;20814;-49
2023/10/15 07:59:37;;;;;;;4.73;2.80;;;;;;;11.17;76.91;97755.84;6249702;28;20234;-51
2023/10/15 08:02:39;;;;;;;4.70;2.80;;;;;;;11.31;75.81;97765.91;6248480;28;20795;-54
2023/10/15 08:05:44;;;;;;;5.83;3.23;;;;;;;11.14;77.61;97762.47;6249837;28;20238;-51
2023/10/15 08:08:47;;;;;;;6.93;3.00;;;;;;;11.20;74.63;97766.03;6249816;28;20237;-52
2023/10/15 08:11:49;;;;;;;5.03;2.83;;;;;;;11.23;75.49;97755.69;6250406;28;20297;-53
2023/10/15 08:14:51;;;;;;;6.80;3.37;;;;;;;11.47;73.46;97753.59;6249583;28;20329;-50
2023/10/15 08:17:55;;;;;;;4.87;2.73;;;;;;;11.43;73.03;97755.19;6249651;28;20294;-51
2023/10/15 08:20:57;;;;;;;7.87;3.03;;;;;;;11.50;72.52;97755.00;6251007;28;20250;-51
2023/10/15 08:23:59;;;;;;;6.63;2.50;;;;;;;11.28;74.54;97766.44;6244603;28;20249;-49
2023/10/15 08:27:01;;;;;;;4.60;2.40;;;;;;;11.48;73.27;97749.91;6247472;28;20264;-51
2023/10/15 08:30:04;;;;;;;5.43;2.50;;;;;;;11.57;71.37;97744.94;6250411;28;20225;-48
2023/10/15 08:33:11;;;;;;;4.10;2.50;;;;;;;11.61;70.63;97730.06;6249603;28;20252;-54
2023/10/15 08:36:14;;;;;;;6.33;2.50;;;;;;;11.58;70.63;97743.91;6245595;28;20231;-51
2023/10/15 08:39:16;;;;;;;6.53;2.40;;;;;;;11.83;69.83;97724.78;6246449;28;20233;-50
2023/10/15 08:42:26;;;;;;;6.40;2.30;;;;;;;11.70;70.32;97723.22;6265792;28;20307;-50
2023/10/15 08:45:29;;;;;;;5.50;2.03;;;;;;;11.79;69.40;97739.63;6248335;28;20610;-52
2023/10/15 08:48:41;;;;;;;5.03;2.57;;;;;;;12.01;65.74;97740.44;6253801;28;20225;-50
2023/10/15 08:51:44;;;;;;;5.50;2.07;;;;;;;11.93;67.70;97729.44;6254727;28;20234;-50
2023/10/15 08:54:48;;;;;;;8.03;2.57;;;;;;;11.92;66.64;97725.97;6251424;28;20233;-50
2023/10/15 08:57:54;;;;;;;4.03;2.10;;;;;;;12.18;64.94;97731.59;6252488;28;21004;-53
2023/10/15 09:01:00;;;;;;;6.00;2.10;;;;;;;12.13;65.37;97724.31;6252957;28;20227;-50
2023/10/15 09:04:04;;;;;;;4.90;2.17;;;;;;;12.08;67.22;97730.41;6236824;28;20234;-51
2023/10/15 09:07:07;;;;;;;3.13;1.77;;;;;;;12.25;64.53;97726.84;6259999;28;20219;-51
2023/10/15 09:10:13;;;;;;;9.17;2.03;;;;;;;12.11;64.73;97748.56;6252437;28;20654;-51
2023/10/15 09:13:16;;;;;;;7.47;2.17;;;;;;;11.96;64.84;97728.91;6251674;28;20238;-54
2023/10/15 09:16:21;;;;;;;4.13;1.50;;;;;;;11.76;66.22;97732.91;6255486;28;20235;-52
2023/10/15 09:19:24;;;;;;;6.07;2.03;;;;;;;11.63;67.93;97755.44;6253234;28;20280;-52
2023/10/15 09:22:28;;;;;;;9.33;2.23;;;;;;;11.47;68.23;97758.94;6227051;28;20245;-50
2023/10/15 09:25:31;;;;;;;2.90;1.70;;;;;;;11.13;67.01;97765.34;6241246;28;20325;-51
2023/10/15 09:28:35;;;;;;;4.10;1.30;;;;;;;10.81;69.17;97765.94;6253748;28;20241;-53
2023/10/15 09:31:38;;;;;;;5.37;1.90;;;;;;;10.59;71.12;97769.28;6252610;28;20230;-48
2023/10/15 09:34:42;;;;;;;6.83;1.80;;;;;;;10.47;71.38;97762.41;6250612;28;20259;-49
2023/10/15 09:37:44;;;;;;;6.67;1.80;;;;;;;10.10;75.53;97730.81;6252163;28;20743;-51
2023/10/15 09:40:47;;;;;;;3.23;1.57;;;;;;;10.09;76.63;97774.41;6250621;28;20268;-50
2023/10/15 09:43:50;;;;;;;5.30;1.70;;;;;;;10.04;78.49;97776.97;6254247;28;20244;-51
2023/10/15 09:46:52;;;;;;;2.57;1.60;;;;;;;9.85;80.32;97765.69;6250030;28;20242;-49
2023/10/15 09:49:56;;;;;;;5.10;1.83;;;;;;;9.74;82.42;97764.66;6251052;28;20515;-48
2023/10/15 09:53:09;;;;;;;6.87;2.43;;;;;;;9.64;84.71;97759.13;6249662;28;20250;-51
2023/10/15 09:56:15;;;;;;;3.93;1.53;;;;;;;9.58;86.09;97765.41;6255077;28;20765;-48
2023/10/15 09:59:19;;;;;;;3.17;1.80;;;;;;;9.54;80.66;97761.56;6236900;28;20230;-48
2023/10/15 10:02:32;;;;;;;3.03;1.30;;;;;;;9.56;82.14;97776.28;6252253;28;20966;-48
2023/10/15 10:05:49;;;;;;;2.83;1.00;;;;;;;9.41;83.74;97749.34;6253408;28;20276;-48
2023/10/15 10:09:39;;;;;;;5.07;1.73;;;;;;;9.46;87.18;97770.72;6257748;28;20226;-48
2023/10/15 10:12:51;;;;;;;5.03;1.63;;;;;;;9.48;91.60;97760.66;6202086;28;20236;-50
2023/10/15 10:15:58;;;;;;;8.07;2.17;;;;;;;9.47;91.21;97750.28;6251841;28;20245;-49
2023/10/15 10:19:02;;;;;;;4.50;1.70;;;;;;;9.56;91.52;97754.19;6252787;28;20274;-48
2023/10/15 10:22:28;;;;;;;4.07;1.73;;;;;;;9.66;91.75;97756.25;6254124;28;20234;-49
2023/10/15 10:25:31;;;;;;;2.30;1.40;;;;;;;9.74;92.29;97735.41;6250239;28;20425;-48
2023/10/15 10:28:36;;;;;;;7.80;2.60;;;;;;;9.81;92.31;97722.78;6252030;28;20588;-47
2023/10/15 10:31:39;;;;;;;7.53;2.20;;;;;;;9.84;89.34;97721.50;6250129;28;20224;-55
2023/10/15 10:34:44;;;;;;;4.23;1.70;;;;;;;9.89;90.02;97718.13;6252467;28;20292;-53
2023/10/15 10:38:06;;;;;;;3.93;1.50;;;;;;;9.94;91.88;97716.38;6251000;28;20239;-55
2023/10/15 10:41:15;;;;;;;3.07;1.60;;;;;;;9.91;92.17;97719.53;6259130;28;20210;-51
2023/10/15 10:44:23;;;;;;;6.47;2.53;;;;;;;9.86;89.76;97726.59;6249902;28;20942;-51
2023/10/15 10:47:33;;;;;;;5.13;2.03;;;;;;;9.82;89.81;97718.28;6250440;28;20330;-52
2023/10/15 10:51:18;;;;;;;4.87;1.60;;;;;;;9.88;89.90;97713.88;6251856;28;20237;-52
2023/10/15 10:54:25;;;;;;;4.70;1.93;;;;;;;9.85;90.38;97717.78;6222139;28;20243;-54
2023/10/15 10:57:31;;;;;;;3.27;1.60;;;;;;;9.89;90.15;97720.78;6224602;28;20488;-53
2023/10/15 11:00:33;;;;;;;3.80;1.20;;;;;;;9.87;88.54;97717.56;6224510;28;20253;-52
2023/10/15 11:03:36;;;;;;;3.53;1.40;;;;;;;9.88;88.98;97727.16;6227577;28;20226;-52
2023/10/15 11:06:42;;;;;;;8.83;1.50;;;;;;;9.83;88.09;97728.69;6226741;28;20230;-53
2023/10/15 11:09:44;;;;;;;4.67;1.63;;;;;;;9.91;77.98;97716.06;6227291;28;20242;-53
2023/10/15 11:12:46;;;;;;;3.20;1.13;;;;;;;9.88;74.82;97703.22;6254125;28;20608;-53
2023/10/15 11:15:50;;;;;;;3.37;1.40;;;;;;;9.96;77.48;97702.84;6252765;28;20229;-53
2023/10/15 11:18:52;;;;;;;4.87;1.30;;;;;;;10.02;82.44;97708.03;6252377;28;20775;-56
2023/10/15 11:21:55;;;;;;;2.43;1.27;;;;;;;9.88;84.69;97714.66;6252367;28;20336;-56
2023/10/15 11:24:57;;;;;;;3.03;1.30;;;;;;;9.80;85.97;97702.56;6253977;28;20240;-55
2023/10/15 11:28:04;;;;;;;3.23;1.47;;;;;;;9.80;86.41;97707.88;6251910;28;20657;-55
2023/10/15 11:31:06;;;;;;;5.53;1.40;;;;;;;9.77;86.07;97712.84;6247824;28;20224;-53
2023/10/15 11:34:13;;;;;;;1.93;1.20;;;;;;;9.70;87.62;97725.47;6251254;28;20765;-57
2023/10/15 11:37:16;;;;;;;4.57;1.13;;;;;;;9.67;88.00;97708.13;6249409;28;20260;-55
2023/10/15 11:40:20;;;;;;;2.77;1.23;;;;;;;9.69;88.53;97706.03;6252688;28;20613;-54
2023/10/15 11:43:22;;;;;;;4.37;1.27;;;;;;;9.71;88.85;97703.16;6251516;28;20328;-56
2023/10/15 11:46:25;;;;;;;3.53;1.20;;;;;;;9.72;89.40;97689.63;6252634;28;20319;-56
2023/10/15 11:49:30;;;;;;;2.67;1.30;;;;;;;9.73;89.80;97703.72;6276914;28;20309;-55
2023/10/15 11:52:39;;;;;;;3.73;1.33;;;;;;;9.64;90.23;97687.31;6252604;28;20840;-55
2023/10/15 11:55:41;;;;;;;2.27;0.90;;;;;;;9.77;90.88;97707.53;6241860;28;20250;-54
2023/10/15 11:58:45;;;;;;;1.97;1.40;;;;;;;9.78;90.63;97711.81;6249598;28;20309;-54
2023/10/15 12:01:51;;;;;;;1.63;1.00;;;;;;;9.74;91.12;97708.00;6248360;28;20245;-56
2023/10/15 12:04:56;;;;;;;2.70;1.23;;;;;;;9.62;91.07;97693.94;6249463;28;20764;-55
2023/10/15 12:08:03;;;;;;;3.50;1.43;;;;;;;9.66;91.11;97703.06;6251197;28;20229;-57
2023/10/15 12:11:08;;;;;;;3.23;1.47;;;;;;;9.62;92.27;97704.56;6247014;28;20229;-57
2023/10/15 12:14:11;;;;;;;3.57;1.30;;;;;;;9.61;93.34;97689.66;6256558;28;20274;-56
2023/10/15 12:17:15;;;;;;;2.23;1.30;;;;;;;9.64;93.77;97697.97;6256574;28;20221;-56
2023/10/15 12:20:19;;;;;;;3.33;1.37;;;;;;;9.64;94.84;97699.81;6252302;28;20284;-55
2023/10/15 12:23:24;;;;;;;2.20;1.20;;;;;;;9.61;95.04;97703.75;6252854;28;20238;-56
2023/10/15 12:26:27;;;;;;;3.30;1.03;;;;;;;9.54;95.90;97695.91;6258015;28;20231;-57
2023/10/15 12:29:29;;;;;;;4.30;1.50;;;;;;;9.63;95.96;97707.00;6255685;28;20241;-56
2023/10/15 12:32:32;;;;;;;3.63;1.27;;;;;;;9.63;96.94;97692.88;6253193;28;20717;-57
2023/10/15 12:35:48;;;;;;;2.40;0.97;;;;;;;9.64;96.98;97689.97;6256476;28;20241;-56
2023/10/15 12:38:51;;;;;;;4.67;1.50;;;;;;;9.57;97.47;97670.69;6258182;28;20233;-56
2023/10/15 12:41:53;;;;;;;3.30;1.57;;;;;;;9.67;97.05;97678.06;6240283;28;20234;-56
2023/10/15 12:44:56;;;;;;;3.10;1.17;;;;;;;9.65;94.26;97680.16;6243808;28;20238;-56
2023/10/15 12:48:00;;;;;;;2.37;1.07;;;;;;;9.68;95.87;97679.69;6276410;28;20720;-56
2023/10/15 12:51:03;;;;;;;2.60;1.10;;;;;;;9.74;96.36;97692.03;6265645;28;20218;-57
2023/10/15 12:54:05;;;;;;;1.10;1.00;;;;;;;9.79;97.00;97687.63;6241821;28;20230;-56
2023/10/15 12:57:08;;;;;;;3.70;1.40;;;;;;;9.83;97.19;97690.63;6252427;28;20303;-56
2023/10/15 13:00:17;;;;;;;2.97;1.30;;;;;;;9.88;97.76;97692.56;6222887;28;20215;-56
2023/10/15 13:03:20;;;;;;;2.93;1.27;;;;;;;9.86;97.99;97671.53;6256061;28;20223;-55
2023/10/15 13:06:23;;;;;;;4.43;1.23;;;;;;;9.96;97.70;97690.34;6252204;28;20233;-56
2023/10/15 13:09:25;;;;;;;3.00;1.57;;;;;;;9.98;96.61;97682.13;6234000;28;20347;-56
2023/10/15 13:12:28;;;;;;;4.90;1.10;;;;;;;9.89;96.66;97673.72;6252206;28;20238;-57
2023/10/15 13:15:31;;;;;;;4.97;1.07;;;;;;;9.99;97.10;97689.06;6231007;28;20234;-57
2023/10/15 13:18:40;;;;;;;2.30;1.10;;;;;;;9.97;96.90;97689.31;6248952;28;20296;-56
2023/10/15 13:21:43;;;;;;;2.63;1.20;;;;;;;9.96;96.97;97689.56;6252440;28;20243;-57
2023/10/15 13:24:47;;;;;;;2.37;1.27;;;;;;;9.97;97.15;97676.00;6251991;28;20235;-57
2023/10/15 13:27:50;;;;;;;3.17;1.40;;;;;;;9.98;98.65;97682.13;6251175;28;20287;-57
2023/10/15 13:30:53;;;;;;;5.97;1.80;;;;;;;9.89;98.83;97675.56;6253358;28;20238;-56
2023/10/15 13:33:56;;;;;;;2.10;1.40;;;;;;;9.97;98.64;97672.53;6251183;28;20241;-56
2023/10/15 13:37:01;;;;;;;2.90;1.20;;;;;;;9.99;99.09;97681.88;6249582;28;20224;-57
2023/10/15 13:40:12;;;;;;;3.20;1.07;;;;;;;10.11;99.10;97678.38;6237753;28;20234;-55
2023/10/15 13:43:15;;;;;;;3.87;1.60;;;;;;;10.08;99.06;97661.03;6255169;28;20258;-57
2023/10/15 13:46:18;;;;;;;3.13;1.13;;;;;;;10.17;98.92;97677.41;6238414;28;20235;-56
2023/10/15 13:49:21;;;;;;;2.63;1.43;;;;;;;10.18;98.71;97685.16;6222935;28;20239;-56
2023/10/15 13:52:25;;;;;;;2.70;1.37;;;;;;;10.13;98.36;97677.09;6238311;28;20237;-56
2023/10/15 13:55:28;;;;;;;2.33;1.10;;;;;;;10.23;98.59;97685.25;6256171;28;20253;-57
2023/10/15 13:58:31;;;;;;;3.77;1.33;;;;;;;10.23;98.64;97698.56;6242010;28;20294;-56
2023/10/15 14:01:37;;;;;;;2.40;1.10;;;;;;;10.21;98.95;97700.66;6252395;28;20245;-57
2023/10/15 14:04:43;;;;;;;2.73;1.20;;;;;;;10.20;99.01;97696.41;6253694;28;20290;-57
2023/10/15 14:07:48;;;;;;;3.03;1.37;;;;;;;10.16;99.09;97689.13;6240058;28;20862;-56
2023/10/15 14:10:50;;;;;;;2.53;1.10;;;;;;;10.18;98.75;97697.66;6247962;28;20282;-57
2023/10/15 14:13:54;;;;;;;3.43;1.33;;;;;;;10.18;99.68;97697.66;6248631;28;20239;-56
2023/10/15 14:16:57;;;;;;;4.90;1.60;;;;;;;10.11;100.00;97697.81;6247112;28;20272;-56
2023/10/15 14:20:00;;;;;;;2.77;1.60;;;;;;;10.10;100.00;97714.84;6248120;28;20767;-56
2023/10/15 14:23:04;;;;;;;3.33;1.37;;;;;;;10.11;100.00;97710.31;6254721;28;20446;-56
2023/10/15 14:26:07;;;;;;;2.10;1.50;;;;;;;10.09;100.00;97714.00;6235530;28;20226;-56
2023/10/15 14:29:10;;;;;;;2.57;1.33;;;;;;;10.03;100.00;97719.47;6237096;28;20234;-56
2023/10/15 14:32:13;;;;;;;2.27;1.17;;;;;;;9.93;99.23;97724.59;6245105;28;20234;-57
2023/10/15 14:35:16;;;;;;;4.83;1.43;;;;;;;9.78;99.28;97741.88;6244022;28;20238;-56
2023/10/15 14:38:35;;;;;;;4.13;1.40;;;;;;;9.64;99.03;97753.81;6255166;28;20743;-56
2023/10/15 14:42:06;;;;;;;3.03;1.40;;;;;;;9.40;97.69;97758.34;6247327;28;20238;-57
2023/10/15 14:46:06;;;;;;;4.10;1.20;;;;;;;9.10;96.39;97766.44;6244931;28;20225;-57
2023/10/15 14:49:36;;;;;;;2.57;1.17;;;;;;;8.83;93.57;97774.03;6258657;28;20228;-54